Time;durP1;ratioP1;P1;durP2;ratioP2;P2;SDS_P1;SDS_P2;PMS_P1;PMS_P2;Temp;Humidity;BMP_temperature;BMP_pressure;BME280_temperature;BME280_humidity;BME280_pressure;Samples;Min_cycle;Max_cycle;Signal;HPM_P1;HPM_P2
2023/01/21 00:00:32;;;;;;;59.00;25.80;;;-0.80;99.90;;;;;;5032908;28;20450;-68
2023/01/21 00:02:58;;;;;;;62.10;23.87;;;-0.90;99.90;;;;;;5033242;28;20472;-68
2023/01/21 00:05:27;;;;;;;58.57;23.77;;;-0.90;99.90;;;;;;5030118;28;20503;-68
2023/01/21 00:07:53;;;;;;;53.77;22.90;;;-1.00;99.90;;;;;;5025465;28;20454;-68
2023/01/21 00:10:20;;;;;;;59.20;23.43;;;-0.90;99.90;;;;;;5032305;28;20531;-68
2023/01/21 00:12:46;;;;;;;54.20;22.17;;;-1.00;99.90;;;;;;5030321;28;20555;-68
2023/01/21 00:15:13;;;;;;;56.40;24.80;;;-1.10;99.90;;;;;;5032178;28;20515;-68
2023/01/21 00:17:42;;;;;;;54.93;23.30;;;-1.20;99.90;;;;;;5033227;28;20859;-67
2023/01/21 00:20:10;;;;;;;54.90;23.10;;;-1.20;99.90;;;;;;5033019;28;20528;-68
2023/01/21 00:22:38;;;;;;;57.07;23.47;;;-1.30;99.90;;;;;;5032992;28;20880;-68
2023/01/21 00:25:06;;;;;;;51.30;21.57;;;-1.40;99.90;;;;;;5032783;28;20512;-68
2023/01/21 00:27:32;;;;;;;53.47;20.63;;;-1.40;99.90;;;;;;5032688;28;20519;-68
2023/01/21 00:29:59;;;;;;;50.63;22.30;;;-1.40;99.90;;;;;;5032991;28;20496;-68
2023/01/21 00:32:26;;;;;;;48.00;20.20;;;-1.40;99.90;;;;;;5025351;28;20897;-68
2023/01/21 00:34:52;;;;;;;42.37;20.17;;;-1.50;99.90;;;;;;5026804;28;20458;-68
2023/01/21 00:37:19;;;;;;;47.67;19.97;;;-1.50;99.90;;;;;;5028928;28;20512;-67
2023/01/21 00:39:47;;;;;;;46.23;21.03;;;-1.60;99.90;;;;;;5032580;28;20795;-66
2023/01/21 00:42:13;;;;;;;48.17;21.03;;;-1.70;99.90;;;;;;5031496;28;20508;-66
2023/01/21 00:44:40;;;;;;;46.90;21.20;;;-1.70;99.90;;;;;;5032426;28;20504;-66
2023/01/21 00:47:07;;;;;;;44.40;19.47;;;-1.70;99.90;;;;;;5032408;28;20461;-66
2023/01/21 00:49:34;;;;;;;43.80;20.33;;;-1.90;99.90;;;;;;5032503;28;20795;-66
2023/01/21 00:52:00;;;;;;;45.87;18.10;;;-1.90;99.90;;;;;;5032061;28;20897;-67
2023/01/21 00:54:27;;;;;;;39.77;18.23;;;-2.00;99.90;;;;;;5032225;28;21051;-66
2023/01/21 00:56:55;;;;;;;41.47;18.10;;;-2.00;99.90;;;;;;5032346;28;20462;-66
2023/01/21 00:59:22;;;;;;;38.73;18.43;;;-2.00;99.90;;;;;;5027448;28;20475;-66
2023/01/21 01:01:48;;;;;;;37.87;18.10;;;-2.10;99.90;;;;;;5023199;28;20982;-66
2023/01/21 01:04:15;;;;;;;36.47;17.33;;;-2.10;99.90;;;;;;5028065;28;20482;-66
2023/01/21 01:06:41;;;;;;;32.67;16.97;;;-2.10;99.90;;;;;;5032324;28;20461;-66
2023/01/21 01:09:09;;;;;;;38.57;16.50;;;-2.20;99.90;;;;;;5031817;28;20461;-67
2023/01/21 01:11:36;;;;;;;40.97;18.03;;;-2.20;99.90;;;;;;5024930;28;20477;-66
2023/01/21 01:14:04;;;;;;;36.40;17.80;;;-2.20;99.90;;;;;;5030944;28;20486;-66
2023/01/21 01:16:31;;;;;;;45.87;20.27;;;-2.30;99.90;;;;;;5028667;28;20459;-67
2023/01/21 01:18:57;;;;;;;39.20;17.87;;;-2.40;99.90;;;;;;5032091;28;20469;-66
2023/01/21 01:21:24;;;;;;;37.73;18.43;;;-2.40;99.90;;;;;;5024445;28;20470;-67
2023/01/21 01:23:52;;;;;;;42.17;18.70;;;-2.40;99.90;;;;;;5024963;28;20508;-67
2023/01/21 01:26:20;;;;;;;41.77;17.23;;;-2.40;99.90;;;;;;5029921;28;20462;-67
2023/01/21 01:28:47;;;;;;;41.80;18.93;;;-2.50;99.90;;;;;;5031486;28;20458;-66
2023/01/21 01:31:17;;;;;;;34.53;16.83;;;-2.50;99.90;;;;;;5030748;28;21171;-66
2023/01/21 01:33:43;;;;;;;43.63;18.63;;;-2.60;99.90;;;;;;5030487;28;20494;-67
2023/01/21 01:36:13;;;;;;;41.50;18.57;;;-2.60;99.90;;;;;;5030727;28;20496;-66
2023/01/21 01:38:40;;;;;;;38.10;18.83;;;-2.70;99.90;;;;;;5031529;28;20450;-67
2023/01/21 01:41:06;;;;;;;42.07;18.27;;;-2.70;99.90;;;;;;5031320;28;20528;-66
2023/01/21 01:43:54;;;;;;;42.10;19.47;;;-2.70;99.90;;;;;;5031292;28;20450;-68
2023/01/21 01:46:24;;;;;;;44.37;18.53;;;-2.80;99.90;;;;;;5030405;28;20984;-67
2023/01/21 01:48:55;;;;;;;41.40;18.77;;;-2.80;99.90;;;;;;5027181;28;20505;-66
2023/01/21 01:51:26;;;;;;;40.53;18.10;;;-2.90;99.90;;;;;;5020939;28;20523;-66
2023/01/21 01:53:53;;;;;;;43.43;19.03;;;-2.90;99.90;;;;;;5019285;28;20548;-66
2023/01/21 01:56:20;;;;;;;42.77;18.17;;;-2.90;99.90;;;;;;5022268;28;20512;-66
2023/01/21 01:58:47;;;;;;;42.83;17.90;;;-3.00;99.90;;;;;;5031104;28;20457;-67
2023/01/21 02:01:14;;;;;;;47.63;18.80;;;-3.00;99.90;;;;;;5030300;28;20545;-66
2023/01/21 02:03:49;;;;;;;49.03;19.50;;;-3.10;99.90;;;;;;5031291;28;20454;-67
2023/01/21 02:06:17;;;;;;;40.13;18.83;;;-3.10;99.90;;;;;;5022489;28;20515;-67
2023/01/21 02:08:46;;;;;;;41.20;18.17;;;-3.10;99.90;;;;;;5029997;28;20817;-66
2023/01/21 02:11:14;;;;;;;39.93;18.10;;;-3.10;99.90;;;;;;5030686;28;20532;-69
2023/01/21 02:13:42;;;;;;;40.33;18.23;;;-3.20;99.90;;;;;;5028174;28;20493;-66
2023/01/21 02:16:39;;;;;;;36.10;17.10;;;-3.20;99.90;;;;;;5027868;28;20512;-67
2023/01/21 02:19:38;;;;;;;38.90;16.60;;;-3.20;99.90;;;;;;5021926;28;20517;-69
2023/01/21 02:22:13;;;;;;;39.70;17.10;;;-3.20;99.90;;;;;;5017206;28;20469;-66
2023/01/21 02:25:18;;;;;;;44.70;17.90;;;-3.30;99.90;;;;;;5023756;28;20594;-67
2023/01/21 02:28:15;;;;;;;39.93;17.70;;;-3.30;99.90;;;;;;5019710;28;20524;-67
2023/01/21 02:30:57;;;;;;;37.40;17.20;;;-3.30;99.90;;;;;;5011674;28;20467;-67
2023/01/21 02:33:48;;;;;;;46.10;17.67;;;-3.30;99.90;;;;;;5012925;28;20494;-67
2023/01/21 02:36:29;;;;;;;42.97;17.43;;;-3.30;99.90;;;;;;5011035;28;21182;-69
2023/01/21 02:39:05;;;;;;;38.63;17.10;;;-3.30;99.90;;;;;;5030204;28;20469;-69
2023/01/21 02:41:41;;;;;;;43.73;18.60;;;-3.30;99.90;;;;;;5021254;28;20473;-69
2023/01/21 02:44:14;;;;;;;47.00;19.27;;;-3.30;99.90;;;;;;5017901;28;20453;-66
2023/01/21 02:46:45;;;;;;;43.33;20.60;;;-3.30;99.90;;;;;;5020414;28;20973;-67
2023/01/21 02:49:20;;;;;;;42.53;18.40;;;-3.40;99.90;;;;;;5016795;28;20450;-67
2023/01/21 02:51:48;;;;;;;39.73;17.93;;;-3.40;99.90;;;;;;5020959;28;20890;-67
2023/01/21 02:54:16;;;;;;;45.90;19.60;;;-3.40;99.90;;;;;;5020575;28;21068;-67
2023/01/21 02:56:44;;;;;;;48.50;19.07;;;-3.30;99.90;;;;;;5015080;28;20454;-69
2023/01/21 02:59:12;;;;;;;45.63;18.20;;;-3.30;99.90;;;;;;5018107;28;20527;-67
2023/01/21 03:01:51;;;;;;;41.00;18.00;;;-3.30;99.90;;;;;;5014395;28;20568;-66
2023/01/21 03:04:36;;;;;;;36.70;16.60;;;-3.50;99.90;;;;;;5017651;28;20929;-66
2023/01/21 03:07:09;;;;;;;43.50;17.97;;;-3.50;99.90;;;;;;5014865;28;20458;-66
2023/01/21 03:09:36;;;;;;;38.50;17.27;;;-3.60;99.90;;;;;;5017090;28;20463;-66
2023/01/21 03:12:19;;;;;;;35.40;16.43;;;-3.60;99.90;;;;;;5014672;28;20478;-66
2023/01/21 03:17:45;;;;;;;44.67;17.63;;;-3.60;99.90;;;;;;5017427;28;20457;-66
2023/01/21 03:20:20;;;;;;;39.80;17.03;;;-3.60;99.90;;;;;;5014377;28;20569;-66
2023/01/21 03:22:48;;;;;;;39.20;17.67;;;-3.70;99.90;;;;;;5016133;28;20497;-66
2023/01/21 03:25:17;;;;;;;37.10;17.23;;;-3.70;99.90;;;;;;5021354;28;20455;-66
2023/01/21 03:27:47;;;;;;;38.03;17.00;;;-3.70;99.90;;;;;;5020458;28;20904;-65
2023/01/21 03:30:16;;;;;;;41.73;18.77;;;-3.70;99.90;;;;;;5018672;28;20974;-66
2023/01/21 03:32:47;;;;;;;39.23;16.80;;;-3.70;99.90;;;;;;5024150;28;20461;-68
2023/01/21 03:35:20;;;;;;;48.23;18.07;;;-3.70;99.90;;;;;;5026826;28;20539;-67
2023/01/21 03:37:52;;;;;;;38.30;17.60;;;-3.80;99.90;;;;;;5025633;28;20504;-66
2023/01/21 03:40:23;;;;;;;35.40;16.97;;;-3.70;99.90;;;;;;5015487;28;20458;-67
2023/01/21 03:42:52;;;;;;;37.43;17.10;;;-3.70;99.90;;;;;;5014243;28;20521;-66
2023/01/21 03:45:27;;;;;;;41.90;16.80;;;-3.70;99.90;;;;;;5019648;28;20482;-66
2023/01/21 03:47:58;;;;;;;37.60;18.00;;;-3.80;99.90;;;;;;5014272;28;21145;-66
2023/01/21 03:50:32;;;;;;;40.63;17.93;;;-3.80;99.90;;;;;;5014296;28;20465;-66
2023/01/21 03:52:59;;;;;;;40.60;17.30;;;-3.80;99.90;;;;;;5013974;28;20939;-67
2023/01/21 03:55:26;;;;;;;37.30;18.43;;;-3.80;99.90;;;;;;5021396;28;20502;-67
2023/01/21 03:57:53;;;;;;;43.63;19.00;;;-3.80;99.90;;;;;;5021123;28;20482;-66
2023/01/21 04:00:20;;;;;;;43.50;17.63;;;-3.80;99.90;;;;;;5013033;28;20505;-66
2023/01/21 04:02:46;;;;;;;43.93;16.90;;;-3.80;99.90;;;;;;5013857;28;20455;-66
2023/01/21 04:05:13;;;;;;;41.27;18.13;;;-3.80;99.90;;;;;;5018901;28;20939;-67
2023/01/21 04:07:41;;;;;;;44.07;18.63;;;-3.80;99.90;;;;;;5019037;28;20451;-67
2023/01/21 04:10:09;;;;;;;45.03;17.27;;;-3.80;99.90;;;;;;5013285;28;20454;-66
2023/01/21 04:12:36;;;;;;;39.53;16.90;;;-3.80;99.90;;;;;;5020359;28;20505;-68
2023/01/21 04:15:03;;;;;;;39.77;18.30;;;-3.90;99.90;;;;;;5022562;28;20482;-66
2023/01/21 04:17:29;;;;;;;38.43;16.50;;;-3.70;99.90;;;;;;5019323;28;20500;-67
2023/01/21 04:19:56;;;;;;;42.30;17.13;;;-3.90;99.90;;;;;;5013329;28;20992;-66
2023/01/21 04:22:22;;;;;;;35.07;17.20;;;-3.90;99.90;;;;;;5013264;28;20557;-66
2023/01/21 04:24:50;;;;;;;46.33;18.90;;;-3.90;99.90;;;;;;5018292;28;20934;-66
2023/01/21 04:27:17;;;;;;;43.97;19.77;;;-3.90;99.90;;;;;;5018600;28;20509;-66
2023/01/21 04:29:44;;;;;;;43.17;18.17;;;-3.90;99.90;;;;;;5013417;28;20459;-66
2023/01/21 04:32:10;;;;;;;55.30;18.27;;;-3.90;99.90;;;;;;5019211;28;21039;-66
2023/01/21 04:34:37;;;;;;;44.90;19.57;;;-3.80;99.90;;;;;;5018213;28;20479;-66
2023/01/21 04:37:03;;;;;;;45.00;19.07;;;-3.80;99.90;;;;;;5013013;28;20451;-66
2023/01/21 04:39:30;;;;;;;48.03;18.63;;;-3.80;99.90;;;;;;5018914;28;20454;-67
2023/01/21 04:41:58;;;;;;;45.10;19.20;;;-3.80;99.90;;;;;;5013292;28;20474;-66
2023/01/21 04:44:25;;;;;;;46.20;20.30;;;-3.90;99.90;;;;;;5025341;28;20521;-66
2023/01/21 04:46:51;;;;;;;42.27;17.80;;;-3.80;99.90;;;;;;5017757;28;20459;-68
2023/01/21 04:49:18;;;;;;;44.73;19.20;;;-3.80;99.90;;;;;;5012557;28;20455;-66
2023/01/21 04:51:44;;;;;;;45.80;18.87;;;-3.90;99.90;;;;;;5021323;28;20469;-66
2023/01/21 04:54:11;;;;;;;39.83;18.10;;;-4.00;99.90;;;;;;5030503;28;20543;-66
2023/01/21 04:56:38;;;;;;;45.77;19.77;;;-4.00;99.90;;;;;;5017872;28;21000;-67
2023/01/21 04:59:06;;;;;;;47.37;19.40;;;-3.90;99.90;;;;;;5012693;28;20509;-66
2023/01/21 05:01:32;;;;;;;44.50;19.20;;;-4.00;99.90;;;;;;5022194;28;20883;-66
2023/01/21 05:03:59;;;;;;;45.00;20.30;;;-4.00;99.90;;;;;;5018937;28;20446;-66
2023/01/21 05:06:26;;;;;;;47.23;19.27;;;-4.00;99.90;;;;;;5021393;28;20453;-66
2023/01/21 05:08:52;;;;;;;42.43;18.13;;;-4.10;99.90;;;;;;5018554;28;20811;-66
2023/01/21 05:11:20;;;;;;;49.20;20.10;;;-4.10;99.90;;;;;;5014426;28;21018;-66
2023/01/21 05:13:46;;;;;;;43.73;18.90;;;-4.10;99.90;;;;;;5017403;28;20453;-66
2023/01/21 05:16:14;;;;;;;57.17;20.70;;;-4.10;99.90;;;;;;5014868;28;20548;-66
2023/01/21 05:18:41;;;;;;;47.20;18.47;;;-4.10;99.90;;;;;;5012115;28;20482;-66
2023/01/21 05:21:08;;;;;;;47.33;20.33;;;-4.10;99.90;;;;;;5013912;28;20552;-67
2023/01/21 05:23:34;;;;;;;44.43;19.40;;;-4.10;99.90;;;;;;5015346;28;20543;-66
2023/01/21 05:26:01;;;;;;;48.80;18.73;;;-4.10;99.90;;;;;;5024654;28;20447;-66
2023/01/21 05:28:28;;;;;;;43.57;19.77;;;-4.10;99.90;;;;;;5012201;28;20455;-67
2023/01/21 05:30:54;;;;;;;61.47;20.90;;;-4.10;99.90;;;;;;5016385;28;21291;-67
2023/01/21 05:33:25;;;;;;;51.67;20.27;;;-4.20;99.90;;;;;;5017740;28;20454;-68
2023/01/21 05:35:51;;;;;;;48.00;20.17;;;-4.20;99.90;;;;;;5023457;28;20851;-67
2023/01/21 05:38:18;;;;;;;41.13;17.50;;;-4.20;99.90;;;;;;5012654;28;20931;-67
2023/01/21 05:40:45;;;;;;;51.63;20.07;;;-4.20;99.90;;;;;;5015324;28;20470;-67
2023/01/21 05:43:11;;;;;;;53.23;20.73;;;-4.20;99.90;;;;;;5015524;28;20825;-67
2023/01/21 05:45:38;;;;;;;43.53;18.37;;;-4.20;99.90;;;;;;5026072;28;20447;-67
2023/01/21 05:48:05;;;;;;;52.37;19.13;;;-4.20;99.90;;;;;;5012423;28;20509;-67
2023/01/21 05:50:33;;;;;;;41.80;18.83;;;-4.20;99.90;;;;;;5015825;28;20447;-67
2023/01/21 05:53:00;;;;;;;54.87;20.40;;;-4.20;99.90;;;;;;5011752;28;20450;-67
2023/01/21 05:55:26;;;;;;;50.20;19.97;;;-4.30;99.90;;;;;;5011456;28;20495;-67
2023/01/21 05:57:53;;;;;;;41.23;17.93;;;-4.30;99.90;;;;;;5019013;28;20502;-67
2023/01/21 06:00:20;;;;;;;51.57;21.00;;;-4.30;99.90;;;;;;5010920;28;20477;-67
2023/01/21 06:02:47;;;;;;;52.00;21.30;;;-4.30;99.90;;;;;;5018468;28;20466;-68
2023/01/21 06:05:14;;;;;;;43.63;18.70;;;-4.30;99.90;;;;;;5013629;28;20858;-67
2023/01/21 06:07:41;;;;;;;48.73;20.73;;;-4.30;99.90;;;;;;5012880;28;20458;-67
2023/01/21 06:10:09;;;;;;;41.20;18.47;;;-4.30;99.90;;;;;;5019743;28;20517;-67
2023/01/21 06:12:36;;;;;;;51.53;22.13;;;-4.30;99.90;;;;;;5011209;28;20578;-67
2023/01/21 06:15:02;;;;;;;43.53;18.87;;;-4.30;99.90;;;;;;5013194;28;21036;-67
2023/01/21 06:17:29;;;;;;;44.00;18.83;;;-4.30;99.90;;;;;;5019103;28;20521;-67
2023/01/21 06:19:56;;;;;;;43.80;18.93;;;-4.20;99.90;;;;;;5014951;28;20524;-68
2023/01/21 06:22:22;;;;;;;46.07;19.97;;;-4.30;99.90;;;;;;5013369;28;20978;-67
2023/01/21 06:24:50;;;;;;;50.73;20.90;;;-4.30;99.90;;;;;;5015501;28;20505;-68
2023/01/21 06:27:17;;;;;;;40.30;17.50;;;-4.30;99.90;;;;;;5016117;28;20483;-67
2023/01/21 06:29:43;;;;;;;43.30;18.27;;;-4.30;99.90;;;;;;5011289;28;20477;-67
2023/01/21 06:32:10;;;;;;;49.03;19.63;;;-4.20;99.90;;;;;;5018402;28;20851;-67
2023/01/21 06:34:36;;;;;;;40.40;17.93;;;-4.20;99.90;;;;;;5020294;28;20454;-67
2023/01/21 06:37:03;;;;;;;43.50;19.73;;;-4.30;99.90;;;;;;5020309;28;20474;-68
2023/01/21 06:39:30;;;;;;;44.50;17.40;;;-4.20;99.90;;;;;;5011369;28;20589;-67
2023/01/21 06:41:58;;;;;;;48.83;20.10;;;-4.20;99.90;;;;;;5010892;28;20501;-67
2023/01/21 06:44:24;;;;;;;45.73;18.50;;;-4.20;99.90;;;;;;5016524;28;20972;-67
2023/01/21 06:46:51;;;;;;;44.60;18.10;;;-4.20;99.90;;;;;;5014427;28;20943;-67
2023/01/21 06:49:18;;;;;;;42.03;19.00;;;-4.20;99.90;;;;;;5014320;28;20509;-67
2023/01/21 06:51:44;;;;;;;48.70;18.43;;;-4.20;99.90;;;;;;5010665;28;20878;-69
2023/01/21 06:54:11;;;;;;;41.83;17.77;;;-4.00;99.90;;;;;;5011542;28;20447;-68
2023/01/21 06:56:39;;;;;;;57.90;20.80;;;-4.00;99.90;;;;;;5019225;28;20490;-68
2023/01/21 06:59:07;;;;;;;40.70;18.70;;;-3.90;99.90;;;;;;5017806;28;20556;-67
2023/01/21 07:01:34;;;;;;;46.97;19.10;;;-3.80;99.90;;;;;;5011268;28;20796;-68
2023/01/21 07:04:02;;;;;;;42.77;17.70;;;-3.80;99.90;;;;;;5019162;28;20875;-68
2023/01/21 07:06:28;;;;;;;44.33;18.40;;;-3.70;99.90;;;;;;5010946;28;20454;-69
2023/01/21 07:08:55;;;;;;;41.50;17.70;;;-3.70;99.90;;;;;;5011287;28;20521;-68
2023/01/21 07:11:21;;;;;;;55.77;20.83;;;-3.60;99.90;;;;;;5015328;28;20470;-67
2023/01/21 07:13:48;;;;;;;49.87;21.33;;;-3.50;99.90;;;;;;5018037;28;20530;-67
2023/01/21 07:16:16;;;;;;;42.57;18.73;;;-3.50;99.90;;;;;;5010812;28;20544;-69
2023/01/21 07:18:43;;;;;;;46.13;18.90;;;-3.50;99.90;;;;;;5011764;28;21218;-69
2023/01/21 07:21:09;;;;;;;45.60;17.57;;;-3.40;99.90;;;;;;5015394;28;20524;-69
2023/01/21 07:23:36;;;;;;;48.77;19.70;;;-3.40;99.90;;;;;;5011953;28;20517;-69
2023/01/21 07:26:02;;;;;;;48.63;17.87;;;-3.40;99.90;;;;;;5024639;28;20445;-70
2023/01/21 07:28:29;;;;;;;54.93;22.53;;;-3.10;99.90;;;;;;5016124;28;20512;-72
2023/01/21 07:30:58;;;;;;;45.00;21.23;;;-2.20;99.90;;;;;;5018389;28;20470;-72
2023/01/21 07:33:26;;;;;;;47.97;19.33;;;-1.90;99.90;;;;;;5019267;28;20588;-69
2023/01/21 07:35:53;;;;;;;43.23;19.10;;;-1.70;99.90;;;;;;5024025;28;20490;-72
2023/01/21 07:38:20;;;;;;;41.83;19.00;;;-1.40;99.90;;;;;;5018395;28;20443;-67
2023/01/21 07:40:47;;;;;;;37.80;17.87;;;-1.00;99.90;;;;;;5018312;28;20478;-67
2023/01/21 07:43:14;;;;;;;32.53;15.73;;;-1.00;99.90;;;;;;5027308;28;20512;-68
2023/01/21 07:45:41;;;;;;;41.30;18.37;;;-1.40;99.90;;;;;;5019900;28;20450;-69
2023/01/21 07:48:08;;;;;;;43.70;17.70;;;-1.70;99.90;;;;;;5014879;28;20938;-68
2023/01/21 07:50:36;;;;;;;35.67;17.60;;;-1.90;99.90;;;;;;5014017;28;20536;-68
2023/01/21 07:53:03;;;;;;;36.97;17.03;;;-2.20;99.90;;;;;;5020588;28;20451;-68
2023/01/21 07:55:30;;;;;;;40.33;19.63;;;-2.30;99.90;;;;;;5013604;28;20487;-68
2023/01/21 07:57:57;;;;;;;51.70;19.40;;;-2.30;99.90;;;;;;5015507;28;20455;-68
2023/01/21 08:00:25;;;;;;;38.23;17.63;;;-2.40;99.90;;;;;;5012872;28;20454;-68
2023/01/21 08:02:53;;;;;;;42.23;18.83;;;-2.40;99.90;;;;;;5023171;28;20469;-68
2023/01/21 08:05:21;;;;;;;39.60;17.43;;;-2.40;99.90;;;;;;5020312;28;20454;-68
2023/01/21 08:07:49;;;;;;;44.93;20.00;;;-2.50;99.90;;;;;;5029469;28;20945;-68
2023/01/21 08:10:16;;;;;;;45.63;18.47;;;-2.50;99.90;;;;;;5019054;28;20454;-68
2023/01/21 08:12:43;;;;;;;37.50;18.33;;;-2.50;99.90;;;;;;5014064;28;20863;-68
2023/01/21 08:15:11;;;;;;;35.77;17.97;;;-2.50;99.90;;;;;;5013924;28;20929;-68
2023/01/21 08:17:38;;;;;;;42.27;18.27;;;-2.40;99.90;;;;;;5013894;28;20455;-68
2023/01/21 08:20:06;;;;;;;42.60;17.97;;;-2.40;99.90;;;;;;5016066;28;20909;-68
2023/01/21 08:22:33;;;;;;;37.73;19.23;;;-2.40;99.90;;;;;;5014799;28;20474;-69
2023/01/21 08:25:01;;;;;;;42.87;19.53;;;-2.30;99.90;;;;;;5015696;28;20455;-69
2023/01/21 08:27:27;;;;;;;41.70;18.13;;;-2.30;99.90;;;;;;5013488;28;20447;-69
2023/01/21 08:29:54;;;;;;;39.30;16.87;;;-2.30;99.90;;;;;;5016849;28;20855;-69
2023/01/21 08:32:21;;;;;;;49.10;18.67;;;-2.30;99.90;;;;;;5022612;28;20516;-67
2023/01/21 08:34:48;;;;;;;36.80;16.70;;;-2.30;99.90;;;;;;5022511;28;20509;-68
2023/01/21 08:37:14;;;;;;;40.17;17.70;;;-2.20;99.90;;;;;;5017501;28;20533;-68
2023/01/21 08:39:41;;;;;;;46.23;19.37;;;-2.20;99.90;;;;;;5020603;28;20489;-68
2023/01/21 08:42:09;;;;;;;42.40;18.63;;;-2.20;99.90;;;;;;5021507;28;20501;-68
2023/01/21 08:44:36;;;;;;;44.43;18.77;;;-2.10;99.90;;;;;;5013276;28;20458;-68
2023/01/21 08:47:02;;;;;;;39.93;18.57;;;-2.00;99.90;;;;;;5012808;28;20451;-67
2023/01/21 08:49:29;;;;;;;39.00;16.50;;;-2.00;99.90;;;;;;5012926;28;20919;-69
2023/01/21 08:51:55;;;;;;;40.37;16.60;;;-1.90;99.90;;;;;;5017773;28;20475;-68
2023/01/21 08:54:22;;;;;;;47.30;20.57;;;-1.90;99.90;;;;;;5015461;28;20827;-69
2023/01/21 08:56:48;;;;;;;35.90;16.87;;;-1.80;99.90;;;;;;5012903;28;20483;-69
2023/01/21 08:59:16;;;;;;;39.13;18.60;;;-1.80;99.90;;;;;;5013088;28;20673;-69
2023/01/21 09:01:43;;;;;;;36.90;17.23;;;-1.70;99.90;;;;;;5012313;28;21004;-69
2023/01/21 09:04:10;;;;;;;40.70;18.10;;;-1.70;99.90;;;;;;5016787;28;20455;-67
2023/01/21 09:06:36;;;;;;;36.70;17.23;;;-1.70;99.90;;;;;;5022900;28;20508;-70
2023/01/21 09:09:03;;;;;;;40.80;17.10;;;-1.70;99.90;;;;;;5018278;28;20942;-70
2023/01/21 09:11:30;;;;;;;40.50;18.37;;;-1.60;99.90;;;;;;5012792;28;20482;-70
2023/01/21 09:14:02;;;;;;;41.60;18.67;;;-1.60;99.90;;;;;;5012895;28;20647;-69
2023/01/21 09:16:31;;;;;;;42.63;18.27;;;-1.50;99.90;;;;;;5012330;28;20490;-68
2023/01/21 09:18:57;;;;;;;37.27;17.80;;;-1.40;99.90;;;;;;5018486;28;20471;-68
2023/01/21 09:21:25;;;;;;;40.20;17.17;;;-1.40;99.90;;;;;;5017405;28;20477;-69
2023/01/21 09:23:51;;;;;;;39.40;17.33;;;-1.40;99.90;;;;;;5012632;28;20454;-69
2023/01/21 09:26:20;;;;;;;45.70;18.17;;;-1.30;99.90;;;;;;5012669;28;20566;-69
2023/01/21 09:28:51;;;;;;;42.17;18.37;;;-1.30;99.90;;;;;;5013217;28;20875;-69
2023/01/21 09:31:20;;;;;;;37.07;16.50;;;-1.20;99.90;;;;;;5023257;28;20523;-71
2023/01/21 09:33:50;;;;;;;37.63;17.33;;;-1.10;99.90;;;;;;5016695;28;20447;-70
2023/01/21 09:36:19;;;;;;;48.70;18.20;;;-1.10;99.90;;;;;;5021144;28;20916;-70
2023/01/21 09:38:47;;;;;;;44.87;17.67;;;-0.90;99.90;;;;;;5022386;28;20451;-70
2023/01/21 09:41:23;;;;;;;39.43;18.33;;;-0.90;99.90;;;;;;5013866;28;20533;-70
2023/01/21 09:43:56;;;;;;;37.63;18.03;;;-0.80;99.90;;;;;;5016365;28;20450;-70
2023/01/21 09:46:31;;;;;;;37.60;16.63;;;-0.80;99.90;;;;;;5017496;28;20870;-70
2023/01/21 09:49:01;;;;;;;43.10;18.93;;;-0.70;99.90;;;;;;5019796;28;20458;-70
2023/01/21 09:51:48;;;;;;;36.07;17.80;;;-0.60;99.90;;;;;;5018894;28;20478;-70
2023/01/21 09:54:22;;;;;;;40.77;17.27;;;-0.50;99.90;;;;;;5011990;28;20500;-70
2023/01/21 09:57:00;;;;;;;40.27;18.20;;;-0.50;99.90;;;;;;5012056;28;21081;-70
2023/01/21 09:59:40;;;;;;;42.60;16.93;;;-0.50;99.90;;;;;;5011988;28;20500;-70
2023/01/21 10:02:16;;;;;;;38.57;17.67;;;-0.50;99.90;;;;;;5011838;28;20481;-70
2023/01/21 10:04:52;;;;;;;37.27;17.70;;;-0.40;99.90;;;;;;5014849;28;20453;-70
2023/01/21 10:07:22;;;;;;;42.70;18.93;;;-0.40;99.90;;;;;;5014662;28;20505;-70
2023/01/21 10:09:59;;;;;;;34.40;17.57;;;-0.40;99.90;;;;;;5011934;28;20447;-70
2023/01/21 10:12:41;;;;;;;29.50;14.00;;;-0.50;99.90;;;;;;5011658;28;20482;-70
2023/01/21 10:15:28;;;;;;;30.40;14.10;;;-0.60;99.90;;;;;;5011907;28;20458;-70
2023/01/21 10:17:59;;;;;;;32.03;14.33;;;-0.60;99.90;;;;;;5014334;28;20505;-73
2023/01/21 10:20:30;;;;;;;32.73;14.97;;;-0.60;99.90;;;;;;5019260;28;20474;-71
2023/01/21 10:23:02;;;;;;;25.30;12.83;;;-0.50;99.90;;;;;;5010986;28;21246;-71
2023/01/21 10:25:31;;;;;;;30.03;12.33;;;-0.50;99.90;;;;;;5011215;28;20508;-71
2023/01/21 10:28:02;;;;;;;28.80;11.90;;;-0.50;99.90;;;;;;5011160;28;20939;-71
2023/01/21 10:30:34;;;;;;;29.83;13.87;;;-0.50;99.90;;;;;;5010819;28;21025;-71
2023/01/21 10:33:01;;;;;;;22.73;11.37;;;-0.40;99.90;;;;;;5022820;28;20451;-70
2023/01/21 10:35:43;;;;;;;25.87;12.13;;;-0.30;99.90;;;;;;5013733;28;20536;-70
2023/01/21 10:38:18;;;;;;;26.07;11.47;;;-0.30;99.90;;;;;;5013432;28;20559;-70
2023/01/21 10:40:54;;;;;;;24.27;11.30;;;-0.40;99.90;;;;;;5019673;28;20493;-71
2023/01/21 10:43:32;;;;;;;23.63;11.90;;;-0.50;99.90;;;;;;5010533;28;20820;-70
2023/01/21 10:46:05;;;;;;;23.70;11.80;;;-0.50;99.90;;;;;;5013201;28;20512;-70
2023/01/21 10:48:38;;;;;;;23.80;11.90;;;-0.60;99.90;;;;;;5017967;28;20458;-71
2023/01/21 10:51:15;;;;;;;25.40;13.07;;;-0.60;99.90;;;;;;5014761;28;20524;-70
2023/01/21 10:53:47;;;;;;;24.47;11.97;;;-0.60;99.90;;;;;;5014675;28;20503;-70
2023/01/21 10:56:24;;;;;;;21.47;10.07;;;-0.50;99.90;;;;;;5014478;28;20487;-71
2023/01/21 10:58:53;;;;;;;20.70;11.10;;;-0.60;99.90;;;;;;5011574;28;20443;-70
2023/01/21 11:01:25;;;;;;;19.93;9.73;;;-0.60;99.90;;;;;;5014606;28;20466;-71
2023/01/21 11:03:54;;;;;;;21.17;11.20;;;-0.60;99.90;;;;;;5020173;28;20459;-71
2023/01/21 11:06:23;;;;;;;20.90;10.27;;;-0.70;99.90;;;;;;5014222;28;20443;-70
2023/01/21 11:08:54;;;;;;;19.30;10.27;;;-0.70;99.90;;;;;;5014265;28;20538;-70
2023/01/21 11:11:29;;;;;;;32.70;12.67;;;-0.60;99.90;;;;;;5026380;28;20618;-68
2023/01/21 11:13:56;;;;;;;21.93;10.20;;;-0.60;99.90;;;;;;5014311;28;20446;-69
2023/01/21 11:16:34;;;;;;;23.83;10.57;;;-0.50;99.90;;;;;;5015895;28;21051;-69
2023/01/21 11:19:03;;;;;;;18.70;9.60;;;-0.50;99.90;;;;;;5016914;28;20531;-68
2023/01/21 11:21:31;;;;;;;19.77;10.03;;;-0.40;99.90;;;;;;5014386;28;20524;-69
2023/01/21 11:23:59;;;;;;;20.73;10.17;;;-0.40;99.90;;;;;;5014315;28;20443;-69
2023/01/21 11:26:28;;;;;;;17.23;9.50;;;-0.30;99.90;;;;;;5020920;28;20939;-68
2023/01/21 11:29:09;;;;;;;15.30;9.23;;;-0.20;99.90;;;;;;5023085;28;20480;-67
2023/01/21 11:31:36;;;;;;;18.60;9.60;;;-0.20;99.90;;;;;;5022642;28;20476;-68
2023/01/21 11:34:10;;;;;;;16.77;9.30;;;-0.20;99.90;;;;;;5019241;28;20529;-68
2023/01/21 11:36:57;;;;;;;13.90;8.63;;;-0.20;99.90;;;;;;5021280;28;20541;-68
2023/01/21 11:39:25;;;;;;;15.10;8.27;;;-0.20;99.90;;;;;;5020777;28;20451;-68
2023/01/21 11:41:52;;;;;;;18.00;10.10;;;-0.20;99.90;;;;;;5014774;28;20524;-68
2023/01/21 11:44:21;;;;;;;15.63;8.70;;;-0.10;99.90;;;;;;5018506;28;20446;-69
2023/01/21 11:46:48;;;;;;;14.30;8.43;;;-0.10;99.90;;;;;;5016539;28;21567;-69
2023/01/21 11:49:23;;;;;;;15.57;8.27;;;-0.10;99.90;;;;;;5018822;28;20451;-69
2023/01/21 11:52:12;;;;;;;20.97;10.13;;;-0.10;99.90;;;;;;5014126;28;20465;-69
2023/01/21 11:54:39;;;;;;;17.30;9.40;;;-0.10;99.90;;;;;;5015597;28;20494;-69
2023/01/21 11:57:16;;;;;;;23.40;11.67;;;-0.10;99.90;;;;;;5015855;28;20522;-69
2023/01/21 11:59:46;;;;;;;20.00;10.60;;;-0.10;99.90;;;;;;5018543;28;20457;-70
2023/01/21 12:02:18;;;;;;;16.23;9.53;;;-0.10;99.90;;;;;;5017997;28;20529;-70
2023/01/21 12:04:46;;;;;;;17.90;9.33;;;-0.10;99.90;;;;;;5013312;28;20453;-70
2023/01/21 12:07:19;;;;;;;19.67;9.50;;;-0.20;99.90;;;;;;5013423;28;20467;-70
2023/01/21 12:09:50;;;;;;;18.93;11.10;;;-0.20;99.90;;;;;;5012956;28;20451;-69
2023/01/21 12:12:30;;;;;;;19.50;10.47;;;-0.20;99.90;;;;;;5026805;28;20536;-68
2023/01/21 12:14:59;;;;;;;15.37;9.23;;;-0.10;99.90;;;;;;5017008;28;20508;-68
2023/01/21 12:17:49;;;;;;;14.50;8.90;;;-0.20;99.90;;;;;;5017329;28;21014;-68
2023/01/21 12:20:25;;;;;;;14.60;8.53;;;-0.20;99.90;;;;;;5023639;28;20513;-68
2023/01/21 12:23:26;;;;;;;17.47;9.40;;;-0.20;99.90;;;;;;5013463;28;20446;-69
2023/01/21 12:25:58;;;;;;;14.30;9.20;;;-0.10;99.90;;;;;;5021244;28;20458;-68
2023/01/21 12:28:51;;;;;;;13.70;8.17;;;-0.20;99.90;;;;;;5013274;28;20451;-68
2023/01/21 12:31:26;;;;;;;16.57;8.80;;;-0.20;99.90;;;;;;5019062;28;20524;-68
2023/01/21 12:33:59;;;;;;;14.00;9.10;;;-0.20;99.90;;;;;;5022417;28;20491;-69
2023/01/21 12:36:31;;;;;;;16.00;8.50;;;-0.20;99.90;;;;;;5016671;28;20512;-70
2023/01/21 12:39:20;;;;;;;14.20;8.43;;;-0.10;99.90;;;;;;5020178;28;20472;-69
2023/01/21 12:41:54;;;;;;;17.60;9.13;;;0.10;99.90;;;;;;5014744;28;20474;-68
2023/01/21 12:44:27;;;;;;;13.13;7.90;;;0.20;99.90;;;;;;5015418;28;20454;-69